createdAt,value
2022-12-03T00:01:54.052Z,22.40
2022-12-03T00:04:24.463Z,26.40
2022-12-03T00:06:55.039Z,20.70
2022-12-03T00:09:25.861Z,24.80
2022-12-03T00:11:56.201Z,24.60
2022-12-03T00:14:26.581Z,24.50
2022-12-03T00:16:57.147Z,26.30
2022-12-03T00:19:27.677Z,20.30
2022-12-03T00:21:58.169Z,27.20
2022-12-03T00:24:28.629Z,27.50
2022-12-03T00:26:59.148Z,27.90
2022-12-03T00:29:29.652Z,31.00
2022-12-03T00:32:00.016Z,24.90
2022-12-03T00:34:30.439Z,26.00
2022-12-03T00:37:01.141Z,25.60
2022-12-03T00:39:31.540Z,29.00
2022-12-03T00:42:02.171Z,30.40
2022-12-03T00:44:33.157Z,25.80
2022-12-03T00:47:04.141Z,21.40
2022-12-03T00:49:35.204Z,28.50
2022-12-03T00:52:06.356Z,24.60
2022-12-03T00:54:36.967Z,21.80
2022-12-03T00:57:07.577Z,22.30
2022-12-03T00:59:37.937Z,21.70
2022-12-03T01:02:08.502Z,25.00
2022-12-03T01:04:39.361Z,21.20
2022-12-03T01:07:10.881Z,23.60
2022-12-03T01:09:41.609Z,22.30
2022-12-03T01:12:12.631Z,22.10
2022-12-03T01:14:42.987Z,24.10
2022-12-03T01:17:13.364Z,19.30
2022-12-03T01:19:48.193Z,20.80
2022-12-03T01:22:19.267Z,20.80
2022-12-03T01:24:50.092Z,22.50
2022-12-03T01:27:20.691Z,24.40
2022-12-03T01:29:51.027Z,26.40
2022-12-03T01:32:21.993Z,24.00
2022-12-03T01:34:53.984Z,27.70
2022-12-03T01:37:26.315Z,24.40
2022-12-03T01:39:57.283Z,30.10
2022-12-03T01:42:31.068Z,27.20
2022-12-03T01:45:03.141Z,26.60
2022-12-03T01:47:36.814Z,23.00
2022-12-03T01:50:16.308Z,23.50
2022-12-03T01:52:47.063Z,29.70
2022-12-03T01:55:20.728Z,22.50
2022-12-03T01:57:53.700Z,21.20
2022-12-03T02:00:26.944Z,19.40
2022-12-03T02:02:59.584Z,22.90
2022-12-03T02:05:33.275Z,25.10
2022-12-03T02:08:23.784Z,24.00
2022-12-03T02:10:54.530Z,24.70
2022-12-03T02:13:25.301Z,20.60
2022-12-03T02:15:56.019Z,29.70
2022-12-03T02:18:26.799Z,27.70
2022-12-03T02:21:05.855Z,21.70
2022-12-03T02:23:42.559Z,19.60
2022-12-03T02:26:13.145Z,20.50
2022-12-03T02:28:44.193Z,19.50
2022-12-03T02:31:14.839Z,18.90
2022-12-03T02:33:45.867Z,16.10
2022-12-03T02:36:16.593Z,17.60
2022-12-03T02:38:48.989Z,18.20
2022-12-03T02:41:39.945Z,17.00
2022-12-03T02:44:11.245Z,19.80
2022-12-03T02:46:42.179Z,18.20
2022-12-03T02:49:12.676Z,22.40
2022-12-03T02:51:44.029Z,16.30
2022-12-03T02:54:14.725Z,19.90
2022-12-03T02:56:45.476Z,25.20
2022-12-03T02:59:15.970Z,18.40
2022-12-03T03:01:47.661Z,18.90
2022-12-03T03:04:18.816Z,22.00
2022-12-03T03:06:49.232Z,18.40
2022-12-03T03:09:20.200Z,15.20
2022-12-03T03:11:51.143Z,20.00
2022-12-03T03:14:21.552Z,19.20
2022-12-03T03:16:56.095Z,22.10
2022-12-03T03:19:28.909Z,23.30
2022-12-03T03:21:59.409Z,28.30
2022-12-03T03:24:30.261Z,20.30
2022-12-03T03:27:00.664Z,22.10
2022-12-03T03:29:31.713Z,19.90
2022-12-03T03:32:03.687Z,27.30
2022-12-03T03:34:35.228Z,33.40
2022-12-03T03:37:06.261Z,23.10
2022-12-03T03:39:37.210Z,26.20
2022-12-03T03:42:07.823Z,25.30
2022-12-03T03:44:39.452Z,27.40
2022-12-03T03:47:10.504Z,21.80
2022-12-03T03:49:41.260Z,29.40
2022-12-03T03:52:13.336Z,32.50
2022-12-03T03:54:43.861Z,24.50
2022-12-03T03:57:14.891Z,29.80
2022-12-03T03:59:45.552Z,18.90
2022-12-03T04:02:21.714Z,21.30
2022-12-03T04:04:53.655Z,17.90
2022-12-03T04:07:24.568Z,21.50
2022-12-03T04:09:55.961Z,26.60
2022-12-03T04:12:43.968Z,35.60
2022-12-03T04:15:14.844Z,27.80
2022-12-03T04:17:45.490Z,30.50
2022-12-03T04:20:16.836Z,26.10
2022-12-03T04:22:47.641Z,33.90
2022-12-03T04:25:35.792Z,31.10
2022-12-03T04:28:24.795Z,38.40
2022-12-03T04:30:55.267Z,34.40
2022-12-03T04:33:43.580Z,28.50
2022-12-03T04:36:14.373Z,28.00
2022-12-03T04:38:44.674Z,32.20
2022-12-03T04:41:15.447Z,27.20
2022-12-03T04:44:00.036Z,29.30
2022-12-03T04:46:31.468Z,27.00
2022-12-03T04:49:02.690Z,35.80
2022-12-03T04:51:33.917Z,28.10
2022-12-03T04:54:04.730Z,29.70
2022-12-03T04:56:35.107Z,26.50
2022-12-03T04:59:08.085Z,33.70
2022-12-03T05:01:41.934Z,34.00
2022-12-03T05:04:12.697Z,35.50
2022-12-03T05:06:43.542Z,30.10
2022-12-03T05:09:15.014Z,29.70
2022-12-03T05:11:45.937Z,29.60
2022-12-03T05:14:16.355Z,31.40
2022-12-03T05:16:47.417Z,31.20
2022-12-03T05:19:18.004Z,34.60
2022-12-03T05:21:48.398Z,32.80
2022-12-03T05:24:19.133Z,38.20
2022-12-03T05:26:49.799Z,31.00
2022-12-03T05:29:20.161Z,31.10
2022-12-03T05:31:50.500Z,27.90
2022-12-03T05:34:20.913Z,30.20
2022-12-03T05:36:51.249Z,33.90
2022-12-03T05:39:21.589Z,32.00
2022-12-03T05:42:09.394Z,26.80
2022-12-03T05:44:39.728Z,34.20
2022-12-03T05:47:10.115Z,22.30
2022-12-03T05:49:40.779Z,31.80
2022-12-03T05:52:11.789Z,26.70
2022-12-03T05:54:42.091Z,33.20
2022-12-03T05:57:12.419Z,48.50
2022-12-03T05:59:42.877Z,30.40
2022-12-03T06:02:13.859Z,28.60
2022-12-03T06:04:44.759Z,30.60
2022-12-03T06:07:15.500Z,31.10
2022-12-03T06:09:46.216Z,32.50
2022-12-03T06:12:17.408Z,33.20
2022-12-03T06:14:47.836Z,29.10
2022-12-03T06:17:18.655Z,23.50
2022-12-03T06:19:49.346Z,31.00
2022-12-03T06:22:20.226Z,29.90
2022-12-03T06:24:51.591Z,29.00
2022-12-03T06:27:23.105Z,28.10
2022-12-03T06:29:53.474Z,33.10
2022-12-03T06:32:24.390Z,30.70
2022-12-03T06:34:55.407Z,30.70
2022-12-03T06:37:26.282Z,30.20
2022-12-03T06:39:56.826Z,26.60
2022-12-03T06:42:27.934Z,27.50
2022-12-03T06:44:58.640Z,31.00
2022-12-03T06:47:29.231Z,36.90
2022-12-03T06:49:59.544Z,40.80
2022-12-03T06:52:29.939Z,38.50
2022-12-03T06:55:00.748Z,33.60
2022-12-03T06:57:31.517Z,31.00
2022-12-03T07:00:02.231Z,36.80
2022-12-03T07:02:32.898Z,35.10
2022-12-03T07:05:03.420Z,30.90
2022-12-03T07:07:34.476Z,37.00
2022-12-03T07:10:05.588Z,33.60
2022-12-03T07:12:36.053Z,36.60
2022-12-03T07:15:07.975Z,30.30
2022-12-03T07:17:38.704Z,28.30
2022-12-03T07:20:11.267Z,36.60
2022-12-03T07:22:42.025Z,38.70
2022-12-03T07:25:19.548Z,38.40
2022-12-03T07:27:53.293Z,33.70
2022-12-03T07:30:25.633Z,33.60
2022-12-03T07:32:56.187Z,30.10
2022-12-03T07:35:26.534Z,33.90
2022-12-03T07:37:57.360Z,36.10
2022-12-03T07:40:27.904Z,41.20
2022-12-03T07:42:58.359Z,40.40
2022-12-03T07:45:28.835Z,35.50
2022-12-03T07:47:59.535Z,34.50
2022-12-03T07:50:30.020Z,37.00
2022-12-03T07:53:00.478Z,37.90
2022-12-03T07:55:30.914Z,36.00
2022-12-03T07:58:01.271Z,31.20
2022-12-03T08:00:31.824Z,38.60
2022-12-03T08:03:03.012Z,33.30
2022-12-03T08:05:33.483Z,29.30
2022-12-03T08:08:03.902Z,44.20
2022-12-03T08:10:34.977Z,35.50
2022-12-03T08:13:11.468Z,33.80
2022-12-03T08:15:42.887Z,29.00
2022-12-03T08:18:18.447Z,34.90
2022-12-03T08:20:50.672Z,38.60
2022-12-03T08:23:23.650Z,36.40
2022-12-03T08:25:54.934Z,36.30
2022-12-03T08:28:27.081Z,28.80
2022-12-03T08:31:04.116Z,34.80
2022-12-03T08:33:36.804Z,35.90
2022-12-03T08:36:15.724Z,35.20
2022-12-03T08:38:51.901Z,36.60
2022-12-03T08:41:37.262Z,42.50
2022-12-03T08:44:22.369Z,29.90
2022-12-03T08:47:00.824Z,32.00
2022-12-03T08:49:31.315Z,35.00
2022-12-03T08:52:10.898Z,37.70
2022-12-03T08:54:42.201Z,30.70
2022-12-03T08:57:26.064Z,36.00
2022-12-03T08:59:59.919Z,36.00
2022-12-03T09:02:35.249Z,35.30
2022-12-03T09:05:17.725Z,31.00
2022-12-03T09:07:48.250Z,40.90
2022-12-03T09:10:18.835Z,31.60
2022-12-03T09:12:49.246Z,39.60
2022-12-03T09:15:19.980Z,31.30
2022-12-03T09:17:50.705Z,32.60
2022-12-03T09:20:21.419Z,33.70
2022-12-03T09:22:51.822Z,30.10
2022-12-03T09:25:22.317Z,24.60
2022-12-03T09:27:52.929Z,34.20
2022-12-03T09:30:23.666Z,35.30
2022-12-03T09:32:54.099Z,32.40
2022-12-03T09:35:26.124Z,28.50
2022-12-03T09:37:56.648Z,28.60
2022-12-03T09:40:27.274Z,28.20
2022-12-03T09:42:58.637Z,25.90
2022-12-03T09:45:29.159Z,35.00
2022-12-03T09:48:01.951Z,34.80
2022-12-03T09:50:33.686Z,39.30
2022-12-03T09:53:05.471Z,36.10
2022-12-03T09:55:35.856Z,25.70
2022-12-03T09:58:13.232Z,29.60
2022-12-03T10:00:48.711Z,31.10
2022-12-03T10:03:26.550Z,34.10
2022-12-03T10:06:00.326Z,27.90
2022-12-03T10:08:32.448Z,28.60
2022-12-03T10:11:03.155Z,39.70
2022-12-03T10:13:36.197Z,35.90
2022-12-03T10:16:10.384Z,31.00
2022-12-03T10:18:44.908Z,32.30
2022-12-03T10:21:20.812Z,27.80
2022-12-03T10:23:55.317Z,28.80
2022-12-03T10:26:40.810Z,28.10
2022-12-03T10:29:18.497Z,29.10
2022-12-03T10:31:57.673Z,31.90
2022-12-03T10:34:31.551Z,29.20
2022-12-03T10:37:16.905Z,26.40
2022-12-03T10:39:59.664Z,26.40
2022-12-03T10:42:32.430Z,26.90
2022-12-03T10:45:23.457Z,37.20
2022-12-03T10:48:13.037Z,28.90
2022-12-03T10:50:52.601Z,27.40
2022-12-03T10:53:25.103Z,29.20
2022-12-03T10:55:59.507Z,26.70
2022-12-03T10:58:31.663Z,30.10
2022-12-03T11:01:07.968Z,30.30
2022-12-03T11:03:38.957Z,31.10
2022-12-03T11:06:14.912Z,30.80
2022-12-03T11:08:52.968Z,26.90
2022-12-03T11:11:29.257Z,29.90
2022-12-03T11:14:01.438Z,28.60
2022-12-03T11:17:09.006Z,34.00
2022-12-03T11:19:48.454Z,33.40
2022-12-03T11:22:38.900Z,31.10
2022-12-03T11:25:46.869Z,24.90
2022-12-03T11:28:38.270Z,26.00
2022-12-03T11:31:30.974Z,28.00
2022-12-03T11:34:48.188Z,29.70
2022-12-03T11:37:31.471Z,23.80
2022-12-03T11:40:26.768Z,27.30
2022-12-03T11:42:57.193Z,29.20
2022-12-03T11:45:35.437Z,24.50
2022-12-03T11:48:16.641Z,29.00
2022-12-03T11:50:53.281Z,30.40
2022-12-03T11:53:26.280Z,28.30
2022-12-03T11:56:08.823Z,26.90
2022-12-03T11:58:40.522Z,26.90
2022-12-03T12:01:11.269Z,32.00
2022-12-03T12:03:48.052Z,30.50
2022-12-03T12:06:21.129Z,30.10
2022-12-03T12:09:00.227Z,31.60
2022-12-03T12:11:33.155Z,26.60
2022-12-03T12:14:04.889Z,27.70
2022-12-03T12:16:53.571Z,31.20
2022-12-03T12:19:52.706Z,30.50
2022-12-03T12:22:33.406Z,32.70
2022-12-03T12:25:05.382Z,26.30
2022-12-03T12:27:39.514Z,25.50
2022-12-03T12:30:14.877Z,25.20
2022-12-03T12:32:48.118Z,30.40
2022-12-03T12:35:22.123Z,30.00
2022-12-03T12:37:59.671Z,35.50
2022-12-03T12:40:33.940Z,28.90
2022-12-03T12:43:13.509Z,30.90
2022-12-03T12:45:47.082Z,33.00
2022-12-03T12:48:24.379Z,28.10
2022-12-03T12:51:01.053Z,26.80
2022-12-03T12:53:32.816Z,29.30
2022-12-03T12:56:09.057Z,29.40
2022-12-03T12:58:39.449Z,25.10
2022-12-03T13:01:18.866Z,27.00
2022-12-03T13:03:52.971Z,30.40
2022-12-03T13:06:27.419Z,31.30
2022-12-03T13:08:58.119Z,31.20
2022-12-03T13:11:36.994Z,36.80
2022-12-03T13:14:16.069Z,30.00
2022-12-03T13:16:47.654Z,30.50
2022-12-03T13:19:24.851Z,27.60
2022-12-03T13:21:56.623Z,30.70
2022-12-03T13:24:33.835Z,27.50
2022-12-03T13:27:09.836Z,28.20
2022-12-03T13:29:40.709Z,28.40
2022-12-03T13:32:15.639Z,33.60
2022-12-03T13:34:46.718Z,32.40
2022-12-03T13:37:20.711Z,27.10
2022-12-03T13:39:53.407Z,25.20
2022-12-03T13:42:42.499Z,32.40
2022-12-03T13:45:33.231Z,31.00
2022-12-03T13:48:14.657Z,31.00
2022-12-03T13:50:46.163Z,31.90
2022-12-03T13:53:23.508Z,27.30
2022-12-03T13:55:59.029Z,32.30
2022-12-03T13:58:29.833Z,27.60
2022-12-03T14:01:01.023Z,24.40
2022-12-03T14:03:31.509Z,26.00
2022-12-03T14:06:02.710Z,27.40
2022-12-03T14:08:33.315Z,26.20
2022-12-03T14:11:03.891Z,26.90
2022-12-03T14:13:34.713Z,29.20
2022-12-03T14:16:05.916Z,22.30
2022-12-03T14:18:36.664Z,28.10
2022-12-03T14:21:07.440Z,30.60
2022-12-03T14:23:37.825Z,24.20
2022-12-03T14:26:08.685Z,27.20
2022-12-03T14:28:39.129Z,28.60
2022-12-03T14:31:09.627Z,30.50
2022-12-03T14:33:40.368Z,27.90
2022-12-03T14:36:11.879Z,29.00
2022-12-03T14:38:42.845Z,28.30
2022-12-03T14:41:27.343Z,33.50
2022-12-03T14:43:58.413Z,37.20
2022-12-03T14:46:29.948Z,39.50
2022-12-03T14:49:00.724Z,31.10
2022-12-03T14:51:32.010Z,36.10
2022-12-03T14:54:02.950Z,37.60
2022-12-03T14:56:33.463Z,36.30
2022-12-03T14:59:03.824Z,33.00
2022-12-03T15:01:34.691Z,30.30
2022-12-03T15:04:05.451Z,29.00
2022-12-03T15:06:35.910Z,49.20
2022-12-03T15:09:07.165Z,34.70
2022-12-03T15:11:44.538Z,32.30
2022-12-03T15:14:16.797Z,28.20
2022-12-03T15:16:47.332Z,30.60
2022-12-03T15:19:17.814Z,30.60
2022-12-03T15:21:48.187Z,38.60
2022-12-03T15:24:19.465Z,26.60
2022-12-03T15:26:52.192Z,31.30
2022-12-03T15:29:23.099Z,24.50
2022-12-03T15:31:53.792Z,32.10
2022-12-03T15:34:24.514Z,29.20
2022-12-03T15:36:55.088Z,26.50
2022-12-03T15:39:25.730Z,28.60
2022-12-03T15:41:56.681Z,28.60
2022-12-03T15:44:27.076Z,28.50
2022-12-03T15:46:57.762Z,22.10
2022-12-03T15:49:28.800Z,27.10
2022-12-03T15:51:59.683Z,21.20
2022-12-03T15:54:30.223Z,24.30
2022-12-03T15:57:00.810Z,29.40
2022-12-03T15:59:32.026Z,25.60
2022-12-03T16:02:02.690Z,23.00
2022-12-03T16:04:33.087Z,24.40
2022-12-03T16:07:03.384Z,26.20
2022-12-03T16:09:33.974Z,29.80
2022-12-03T16:12:04.840Z,28.10
2022-12-03T16:14:35.339Z,31.40
2022-12-03T16:17:05.955Z,26.90
2022-12-03T16:19:36.625Z,25.50
2022-12-03T16:22:06.958Z,25.90
2022-12-03T16:24:37.552Z,26.00
2022-12-03T16:27:08.077Z,22.30
2022-12-03T16:29:38.511Z,27.10
2022-12-03T16:32:09.424Z,24.40
2022-12-03T16:34:39.807Z,22.90
2022-12-03T16:37:11.410Z,22.30
2022-12-03T16:39:42.404Z,26.70
2022-12-03T16:42:17.323Z,22.40
2022-12-03T16:45:23.043Z,23.70
2022-12-03T16:47:53.756Z,23.90
2022-12-03T16:50:29.424Z,24.40
2022-12-03T16:53:00.477Z,19.40
2022-12-03T16:55:30.820Z,32.00
2022-12-03T16:58:01.511Z,23.30
2022-12-03T17:00:32.396Z,23.50
2022-12-03T17:03:03.187Z,27.00
2022-12-03T17:05:33.675Z,27.80
2022-12-03T17:08:04.063Z,25.50
2022-12-03T17:10:35.301Z,28.30
2022-12-03T17:13:10.569Z,28.40
2022-12-03T17:15:41.737Z,29.90
2022-12-03T17:18:13.149Z,25.80
2022-12-03T17:20:44.276Z,25.80
2022-12-03T17:23:14.897Z,28.50
2022-12-03T17:25:45.860Z,28.80
2022-12-03T17:28:17.030Z,29.10
2022-12-03T17:30:47.507Z,29.20
2022-12-03T17:33:18.727Z,24.00
2022-12-03T17:35:49.936Z,29.10
2022-12-03T17:38:20.620Z,25.60
2022-12-03T17:40:51.642Z,28.50
2022-12-03T17:43:22.563Z,25.00
2022-12-03T17:45:53.676Z,30.90
2022-12-03T17:48:25.050Z,30.20
2022-12-03T17:50:55.750Z,26.10
2022-12-03T17:53:26.211Z,33.90
2022-12-03T17:55:56.953Z,28.30
2022-12-03T17:58:27.737Z,27.20
2022-12-03T18:01:02.403Z,30.80
2022-12-03T18:03:34.525Z,24.30
2022-12-03T18:06:05.400Z,27.30
2022-12-03T18:08:39.001Z,27.30
2022-12-03T18:11:09.465Z,29.40
2022-12-03T18:13:40.160Z,26.10
2022-12-03T18:16:11.318Z,28.20
2022-12-03T18:18:42.427Z,30.00
2022-12-03T18:21:14.009Z,27.70
2022-12-03T18:23:45.032Z,29.80
2022-12-03T18:26:16.231Z,26.30
2022-12-03T18:28:47.000Z,24.50
2022-12-03T18:31:19.133Z,27.10
2022-12-03T18:33:50.233Z,29.90
2022-12-03T18:36:23.852Z,31.20
2022-12-03T18:38:56.056Z,25.90
2022-12-03T18:41:27.835Z,32.00
2022-12-03T18:43:58.277Z,26.70
2022-12-03T18:46:52.428Z,25.80
2022-12-03T18:49:20.632Z,24.70
2022-12-03T18:51:58.699Z,27.10
2022-12-03T18:54:30.209Z,24.10
2022-12-03T18:57:00.588Z,25.60
2022-12-03T18:59:30.956Z,24.70
2022-12-03T19:02:01.437Z,32.60
2022-12-03T19:04:31.965Z,27.30
2022-12-03T19:07:03.853Z,25.40
2022-12-03T19:09:34.398Z,27.10
2022-12-03T19:12:09.816Z,22.00
2022-12-03T19:14:43.384Z,26.50
2022-12-03T19:17:13.872Z,30.90
2022-12-03T19:19:44.313Z,27.40
2022-12-03T19:22:14.988Z,28.60
2022-12-03T19:24:48.150Z,25.20
2022-12-03T19:27:18.963Z,33.80
2022-12-03T19:29:51.864Z,30.60
2022-12-03T19:32:22.515Z,31.30
2022-12-03T19:34:53.663Z,29.90
2022-12-03T19:37:24.051Z,26.60
2022-12-03T19:39:56.573Z,24.10
2022-12-03T19:42:28.013Z,29.20
2022-12-03T19:44:58.698Z,27.80
2022-12-03T19:47:29.519Z,27.70
2022-12-03T19:49:59.980Z,28.90
2022-12-03T19:52:30.313Z,30.60
2022-12-03T19:55:01.099Z,29.40
2022-12-03T19:57:31.551Z,30.50
2022-12-03T20:00:02.181Z,34.10
2022-12-03T20:02:33.000Z,31.30
2022-12-03T20:05:03.533Z,30.60
2022-12-03T20:07:34.252Z,33.10
2022-12-03T20:10:05.221Z,32.60
2022-12-03T20:12:36.147Z,28.90
2022-12-03T20:15:08.088Z,30.70
2022-12-03T20:17:38.440Z,30.40
2022-12-03T20:20:11.075Z,27.20
2022-12-03T20:22:41.433Z,28.30
2022-12-03T20:25:12.876Z,44.80
2022-12-03T20:27:43.806Z,30.80
2022-12-03T20:30:15.725Z,31.70
2022-12-03T20:32:46.062Z,29.10
2022-12-03T20:35:16.856Z,30.80
2022-12-03T20:37:47.913Z,34.30
2022-12-03T20:40:18.378Z,29.00
2022-12-03T20:42:50.493Z,41.50
2022-12-03T20:45:21.033Z,33.60
2022-12-03T20:47:51.360Z,28.50
2022-12-03T20:50:21.862Z,30.40
2022-12-03T20:53:09.753Z,29.60
2022-12-03T20:55:42.777Z,34.70
2022-12-03T20:58:13.214Z,35.20
2022-12-03T21:00:43.684Z,35.60
2022-12-03T21:03:14.070Z,40.40
2022-12-03T21:05:44.888Z,33.50
2022-12-03T21:08:15.364Z,36.50
2022-12-03T21:10:46.123Z,26.30
2022-12-03T21:13:18.598Z,37.60
2022-12-03T21:15:49.915Z,42.10
2022-12-03T21:18:20.371Z,33.90
2022-12-03T21:20:50.722Z,33.30
2022-12-03T21:23:21.179Z,31.40
2022-12-03T21:25:51.901Z,27.90
2022-12-03T21:28:22.272Z,39.20
2022-12-03T21:30:53.209Z,36.30
2022-12-03T21:33:23.736Z,46.00
2022-12-03T21:35:54.109Z,36.70
2022-12-03T21:38:25.492Z,40.40
2022-12-03T21:40:56.819Z,34.70
2022-12-03T21:43:28.231Z,35.00
2022-12-03T21:45:58.976Z,35.20
2022-12-03T21:48:29.333Z,33.10
2022-12-03T21:51:04.401Z,31.80
2022-12-03T21:53:41.935Z,36.90
2022-12-03T21:56:16.973Z,37.40
2022-12-03T21:58:48.110Z,33.10
2022-12-03T22:01:20.981Z,34.00
2022-12-03T22:03:51.727Z,34.80
2022-12-03T22:06:22.892Z,30.10
2022-12-03T22:08:53.727Z,36.80
2022-12-03T22:11:25.376Z,38.00
2022-12-03T22:13:57.123Z,38.50
2022-12-03T22:16:27.809Z,40.90
2022-12-03T22:18:58.483Z,31.00
2022-12-03T22:21:30.263Z,38.80
2022-12-03T22:24:00.854Z,33.00
2022-12-03T22:26:31.236Z,37.10
2022-12-03T22:29:01.580Z,30.30
2022-12-03T22:31:32.088Z,34.50
2022-12-03T22:34:02.536Z,30.50
2022-12-03T22:36:32.937Z,33.10
2022-12-03T22:39:03.894Z,37.20
2022-12-03T22:41:35.181Z,30.60
2022-12-03T22:44:06.349Z,30.00
2022-12-03T22:46:36.783Z,32.60
2022-12-03T22:49:07.911Z,32.80
2022-12-03T22:51:38.768Z,36.40
2022-12-03T22:54:09.157Z,37.80
2022-12-03T22:56:39.849Z,31.20
2022-12-03T22:59:10.482Z,37.40
2022-12-03T23:01:44.959Z,38.40
2022-12-03T23:04:15.336Z,35.40
2022-12-03T23:06:45.957Z,33.40
2022-12-03T23:09:16.329Z,33.00
2022-12-03T23:11:47.823Z,34.40
2022-12-03T23:14:18.773Z,42.70
2022-12-03T23:16:49.247Z,39.00
2022-12-03T23:19:21.028Z,36.20
2022-12-03T23:21:51.474Z,31.20
2022-12-03T23:24:21.901Z,33.10
2022-12-03T23:26:52.738Z,35.20
2022-12-03T23:29:23.167Z,33.10
2022-12-03T23:31:53.770Z,37.00
2022-12-03T23:34:24.450Z,40.50
2022-12-03T23:36:54.986Z,33.70
2022-12-03T23:39:25.344Z,38.20
2022-12-03T23:41:56.256Z,31.10
2022-12-03T23:44:27.956Z,32.50
2022-12-03T23:46:58.743Z,34.10
2022-12-03T23:49:30.329Z,39.30
2022-12-03T23:52:00.702Z,32.90
2022-12-03T23:54:31.097Z,35.10
2022-12-03T23:57:01.436Z,37.70
2022-12-03T23:59:32.068Z,28.70
